createdAt,value
2018-09-16T00:01:58.981Z,16.02
2018-09-16T00:04:26.356Z,16.32
2018-09-16T00:06:53.771Z,15.88
2018-09-16T00:09:21.049Z,17.17
2018-09-16T00:11:48.339Z,15.95
2018-09-16T00:14:15.692Z,16.35
2018-09-16T00:16:43.079Z,16.97
2018-09-16T00:19:10.958Z,15.35
2018-09-16T00:21:39.193Z,16.17
2018-09-16T00:24:06.733Z,14.85
2018-09-16T00:26:34.163Z,16.93
2018-09-16T00:29:01.471Z,16.20
2018-09-16T00:31:28.810Z,17.20
2018-09-16T00:33:56.085Z,16.07
2018-09-16T00:36:23.345Z,17.12
2018-09-16T00:38:50.641Z,15.70
2018-09-16T00:41:18.086Z,17.25
2018-09-16T00:43:45.572Z,16.70
2018-09-16T00:46:12.918Z,16.35
2018-09-16T00:48:40.274Z,15.95
2018-09-16T00:51:07.610Z,16.75
2018-09-16T00:53:34.842Z,16.93
2018-09-16T00:56:02.926Z,16.97
2018-09-16T00:58:30.156Z,16.32
2018-09-16T01:00:58.758Z,15.03
2018-09-16T01:03:26.161Z,17.70
2018-09-16T01:05:58.951Z,16.37
2018-09-16T01:08:26.693Z,16.30
2018-09-16T01:10:54.461Z,16.05
2018-09-16T01:13:22.025Z,16.97
2018-09-16T01:15:49.313Z,15.68
2018-09-16T01:18:16.756Z,15.30
2018-09-16T01:20:44.401Z,15.40
2018-09-16T01:23:11.819Z,15.18
2018-09-16T01:25:39.348Z,17.12
2018-09-16T01:28:06.753Z,15.50
2018-09-16T01:32:58.690Z,16.82
2018-09-16T01:35:25.978Z,16.97
2018-09-16T01:37:59.474Z,16.87
2018-09-16T01:40:26.770Z,16.25
2018-09-16T01:42:54.066Z,16.87
2018-09-16T01:45:21.496Z,17.07
2018-09-16T01:47:48.745Z,17.20
2018-09-16T01:50:16.192Z,18.48
2018-09-16T01:52:43.485Z,16.00
2018-09-16T01:55:10.832Z,17.05
2018-09-16T01:57:38.257Z,18.12
2018-09-16T02:00:05.702Z,18.20
2018-09-16T02:02:33.077Z,17.82
2018-09-16T02:05:00.410Z,18.00
2018-09-16T02:07:27.717Z,17.10
2018-09-16T02:09:55.009Z,16.95
2018-09-16T02:12:22.515Z,17.02
2018-09-16T02:14:49.776Z,15.70
2018-09-16T02:17:17.210Z,16.65
2018-09-16T02:19:44.693Z,17.75
2018-09-16T02:22:11.988Z,17.67
2018-09-16T02:24:39.213Z,16.57
2018-09-16T02:27:06.495Z,16.20
2018-09-16T02:29:33.901Z,15.90
2018-09-16T02:32:01.365Z,15.95
2018-09-16T02:34:28.616Z,15.68
2018-09-16T02:36:56.259Z,16.52
2018-09-16T02:39:23.585Z,16.10
2018-09-16T02:41:50.874Z,16.20
2018-09-16T02:44:18.230Z,17.75
2018-09-16T02:46:45.584Z,17.98
2018-09-16T02:49:12.911Z,16.93
2018-09-16T02:51:40.367Z,16.73
2018-09-16T02:54:07.721Z,18.20
2018-09-16T02:56:35.130Z,17.65
2018-09-16T02:59:02.373Z,18.05
2018-09-16T03:01:29.965Z,17.82
2018-09-16T03:03:57.394Z,17.65
2018-09-16T03:06:30.833Z,19.35
2018-09-16T03:08:58.222Z,19.07
2018-09-16T03:11:25.621Z,19.17
2018-09-16T03:13:52.915Z,17.57
2018-09-16T03:16:20.276Z,18.92
2018-09-16T03:18:47.679Z,18.00
2018-09-16T03:21:14.969Z,18.45
2018-09-16T03:23:42.535Z,19.00
2018-09-16T03:26:09.888Z,20.17
2018-09-16T03:28:37.249Z,19.50
2018-09-16T03:31:04.506Z,17.92
2018-09-16T03:33:31.853Z,19.77
2018-09-16T03:35:59.099Z,20.37
2018-09-16T03:38:26.485Z,19.10
2018-09-16T03:40:53.789Z,18.52
2018-09-16T03:43:21.061Z,19.10
2018-09-16T03:45:48.441Z,20.68
2018-09-16T03:48:15.694Z,18.80
2018-09-16T03:50:43.025Z,20.65
2018-09-16T03:53:10.194Z,21.20
2018-09-16T03:55:38.273Z,19.73
2018-09-16T03:58:05.606Z,20.17
2018-09-16T04:00:32.879Z,20.50
2018-09-16T04:03:00.151Z,20.52
2018-09-16T04:05:27.441Z,20.88
2018-09-16T04:07:54.759Z,19.70
2018-09-16T04:10:22.057Z,20.72
2018-09-16T04:12:49.860Z,20.12
2018-09-16T04:15:17.397Z,20.55
2018-09-16T04:17:44.760Z,20.02
2018-09-16T04:20:12.013Z,22.42
2018-09-16T04:22:39.281Z,22.17
2018-09-16T04:25:06.831Z,19.57
2018-09-16T04:27:34.080Z,21.15
2018-09-16T04:30:01.430Z,22.85
2018-09-16T04:32:28.736Z,21.50
2018-09-16T04:34:55.996Z,21.42
2018-09-16T04:37:23.402Z,21.85
2018-09-16T04:39:50.737Z,20.70
2018-09-16T04:42:18.069Z,21.68
2018-09-16T04:44:45.479Z,22.15
2018-09-16T04:47:12.721Z,20.52
2018-09-16T04:49:40.060Z,22.20
2018-09-16T04:52:07.402Z,20.65
2018-09-16T04:54:34.683Z,21.82
2018-09-16T04:57:01.948Z,22.98
2018-09-16T04:59:29.254Z,20.85
2018-09-16T05:01:56.465Z,20.27
2018-09-16T05:04:23.743Z,21.23
2018-09-16T05:06:51.001Z,21.95
2018-09-16T05:09:18.317Z,19.45
2018-09-16T05:11:45.623Z,19.52
2018-09-16T05:14:12.962Z,19.15
2018-09-16T05:16:40.373Z,19.92
2018-09-16T05:19:07.673Z,19.65
2018-09-16T05:21:34.977Z,20.65
2018-09-16T05:24:02.337Z,20.45
2018-09-16T05:26:29.661Z,19.62
2018-09-16T05:28:57.056Z,20.17
2018-09-16T05:31:24.388Z,20.02
2018-09-16T05:33:51.717Z,20.35
2018-09-16T05:36:19.110Z,20.92
2018-09-16T05:38:46.433Z,21.62
2018-09-16T05:41:13.693Z,21.85
2018-09-16T05:43:40.938Z,21.15
2018-09-16T05:46:08.281Z,20.48
2018-09-16T05:48:35.636Z,20.62
2018-09-16T05:51:02.932Z,19.67
2018-09-16T05:53:30.417Z,21.42
2018-09-16T05:55:57.540Z,20.25
2018-09-16T05:58:24.862Z,19.52
2018-09-16T06:00:52.222Z,20.35
2018-09-16T06:03:19.625Z,21.00
2018-09-16T06:05:46.880Z,20.10
2018-09-16T06:08:14.175Z,20.30
2018-09-16T06:10:41.590Z,19.65
2018-09-16T06:13:08.877Z,19.17
2018-09-16T06:15:36.161Z,18.55
2018-09-16T06:18:03.597Z,18.75
2018-09-16T06:20:30.899Z,18.90
2018-09-16T06:22:58.168Z,19.48
2018-09-16T06:25:25.466Z,17.30
2018-09-16T06:27:52.827Z,18.23
2018-09-16T06:30:20.182Z,19.48
2018-09-16T06:32:47.457Z,19.30
2018-09-16T06:35:14.738Z,18.52
2018-09-16T06:37:42.006Z,18.57
2018-09-16T06:40:09.228Z,18.32
2018-09-16T06:42:36.553Z,19.50
2018-09-16T06:45:03.872Z,18.55
2018-09-16T06:47:31.193Z,17.85
2018-09-16T06:49:58.492Z,17.87
2018-09-16T06:52:25.797Z,18.40
2018-09-16T06:54:53.074Z,18.20
2018-09-16T06:57:20.366Z,18.00
2018-09-16T06:59:47.762Z,19.05
2018-09-16T07:02:15.381Z,20.30
2018-09-16T07:04:42.712Z,18.77
2018-09-16T07:07:10.330Z,18.35
2018-09-16T07:09:37.601Z,18.57
2018-09-16T07:12:04.883Z,19.27
2018-09-16T07:14:32.235Z,19.30
2018-09-16T07:17:00.344Z,20.20
2018-09-16T07:19:27.672Z,18.07
2018-09-16T07:21:55.023Z,19.25
2018-09-16T07:24:22.310Z,19.02
2018-09-16T07:26:49.781Z,18.92
2018-09-16T07:29:17.041Z,18.82
2018-09-16T07:31:44.309Z,20.15
2018-09-16T07:34:12.093Z,18.37
2018-09-16T07:36:39.382Z,19.00
2018-09-16T07:39:08.643Z,19.17
2018-09-16T07:41:35.953Z,20.20
2018-09-16T07:44:03.321Z,18.55
2018-09-16T07:46:30.695Z,18.80
2018-09-16T07:48:57.989Z,19.45
2018-09-16T07:51:25.297Z,17.45
2018-09-16T07:53:52.637Z,18.25
2018-09-16T07:56:19.998Z,17.62
2018-09-16T07:58:47.285Z,17.82
2018-09-16T08:01:14.615Z,20.80
2018-09-16T08:03:41.927Z,19.65
2018-09-16T08:06:09.374Z,17.73
2018-09-16T08:08:36.676Z,16.35
2018-09-16T08:11:04.143Z,17.40
2018-09-16T08:13:31.524Z,17.35
2018-09-16T08:15:58.808Z,16.77
2018-09-16T08:18:26.169Z,16.57
2018-09-16T08:20:53.549Z,17.92
2018-09-16T08:23:21.004Z,19.10
2018-09-16T08:25:48.304Z,18.30
2018-09-16T08:28:15.632Z,18.00
2018-09-16T08:30:42.984Z,17.73
2018-09-16T08:33:10.314Z,17.92
2018-09-16T08:35:37.646Z,17.60
2018-09-16T08:38:04.966Z,18.00
2018-09-16T08:40:32.221Z,17.25
2018-09-16T08:42:59.486Z,17.37
2018-09-16T08:45:26.837Z,18.00
2018-09-16T08:47:54.092Z,17.60
2018-09-16T08:50:21.402Z,18.27
2018-09-16T08:52:48.719Z,18.27
2018-09-16T08:55:16.067Z,18.40
2018-09-16T08:57:43.418Z,19.57
2018-09-16T09:00:11.166Z,19.05
2018-09-16T09:02:38.577Z,19.05
2018-09-16T09:05:06.166Z,17.85
2018-09-16T09:07:33.597Z,18.57
2018-09-16T09:10:00.986Z,19.90
2018-09-16T09:12:28.467Z,20.00
2018-09-16T09:14:55.893Z,18.80
2018-09-16T09:17:23.253Z,18.02
2018-09-16T09:19:50.634Z,18.98
2018-09-16T09:22:18.050Z,18.20
2018-09-16T09:24:45.434Z,17.62
2018-09-16T09:27:12.819Z,18.70
2018-09-16T09:29:40.121Z,18.85
2018-09-16T09:32:07.592Z,19.27
2018-09-16T09:34:35.036Z,19.00
2018-09-16T09:37:02.390Z,17.80
2018-09-16T09:39:29.759Z,18.65
2018-09-16T09:41:57.105Z,19.30
2018-09-16T09:44:24.650Z,17.87
2018-09-16T09:46:51.979Z,17.32
2018-09-16T09:49:19.379Z,19.17
2018-09-16T09:51:46.712Z,17.65
2018-09-16T09:54:14.022Z,16.80
2018-09-16T09:56:41.367Z,17.30
2018-09-16T09:59:08.732Z,16.87
2018-09-16T10:01:36.105Z,16.70
2018-09-16T10:04:03.403Z,17.07
2018-09-16T10:06:30.703Z,18.25
2018-09-16T10:08:58.173Z,17.65
2018-09-16T10:11:25.607Z,18.27
2018-09-16T10:13:53.003Z,16.17
2018-09-16T10:16:21.527Z,15.70
2018-09-16T10:18:50.848Z,16.57
2018-09-16T10:21:18.178Z,16.30
2018-09-16T10:23:45.514Z,17.25
2018-09-16T10:26:12.851Z,16.15
2018-09-16T10:28:40.377Z,16.82
2018-09-16T10:31:07.980Z,17.20
2018-09-16T10:33:35.528Z,18.23
2018-09-16T10:36:02.932Z,17.05
2018-09-16T10:38:30.342Z,16.02
2018-09-16T10:40:57.633Z,15.50
2018-09-16T10:43:24.929Z,15.10
2018-09-16T10:45:52.313Z,15.38
2018-09-16T10:48:19.709Z,15.25
2018-09-16T10:50:46.958Z,16.62
2018-09-16T10:53:14.353Z,16.50
2018-09-16T10:55:41.750Z,16.37
2018-09-16T10:58:09.062Z,15.23
2018-09-16T11:00:36.366Z,15.95
2018-09-16T11:03:03.694Z,16.12
2018-09-16T11:05:31.038Z,16.12
2018-09-16T11:07:58.560Z,17.23
2018-09-16T11:10:25.732Z,16.55
2018-09-16T11:12:52.958Z,17.00
2018-09-16T11:15:20.262Z,15.85
2018-09-16T11:17:47.576Z,15.58
2018-09-16T11:20:14.922Z,15.35
2018-09-16T11:22:42.427Z,14.70
2018-09-16T11:25:09.717Z,16.12
2018-09-16T11:27:37.105Z,14.75
2018-09-16T11:30:04.576Z,15.95
2018-09-16T11:32:31.787Z,16.02
2018-09-16T11:34:59.158Z,16.55
2018-09-16T11:37:26.456Z,15.32
2018-09-16T11:39:53.778Z,15.75
2018-09-16T11:42:21.150Z,16.80
2018-09-16T11:44:48.497Z,15.80
2018-09-16T11:47:15.896Z,16.15
2018-09-16T11:49:43.228Z,15.18
2018-09-16T11:52:10.550Z,16.10
2018-09-16T11:54:37.864Z,16.20
2018-09-16T11:57:05.169Z,15.85
2018-09-16T11:59:32.502Z,15.75
2018-09-16T12:01:59.840Z,15.53
2018-09-16T12:04:27.283Z,14.60
2018-09-16T12:06:54.634Z,15.90
2018-09-16T12:09:21.984Z,15.55
2018-09-16T12:11:49.312Z,15.93
2018-09-16T12:14:16.687Z,16.32
2018-09-16T12:16:44.059Z,16.48
2018-09-16T12:19:11.368Z,16.70
2018-09-16T12:21:38.737Z,15.88
2018-09-16T12:24:06.106Z,16.30
2018-09-16T12:26:33.372Z,15.88
2018-09-16T12:29:00.743Z,16.55
2018-09-16T12:31:28.040Z,15.90
2018-09-16T12:33:55.382Z,15.48
2018-09-16T12:36:22.758Z,16.05
2018-09-16T12:38:50.070Z,15.83
2018-09-16T12:41:17.404Z,16.52
2018-09-16T12:43:44.673Z,15.98
2018-09-16T12:46:11.948Z,16.02
2018-09-16T12:48:39.290Z,16.37
2018-09-16T12:51:06.609Z,14.87
2018-09-16T12:53:33.915Z,15.68
2018-09-16T12:56:01.412Z,18.15
2018-09-16T12:58:28.752Z,15.98
2018-09-16T13:00:56.064Z,16.57
2018-09-16T13:03:23.430Z,15.50
2018-09-16T13:05:50.761Z,16.62
2018-09-16T13:08:18.125Z,16.12
2018-09-16T13:10:45.520Z,15.83
2018-09-16T13:13:12.895Z,15.70
2018-09-16T13:15:40.232Z,16.90
2018-09-16T13:18:07.541Z,15.83
2018-09-16T13:20:34.897Z,16.57
2018-09-16T13:23:02.280Z,14.90
2018-09-16T13:25:29.639Z,15.32
2018-09-16T13:27:56.934Z,15.95
2018-09-16T13:30:24.280Z,15.43
2018-09-16T13:32:51.574Z,16.82
2018-09-16T13:35:18.861Z,16.07
2018-09-16T13:37:46.241Z,15.95
2018-09-16T13:40:13.538Z,17.50
2018-09-16T13:42:40.811Z,16.55
2018-09-16T13:45:08.142Z,15.38
2018-09-16T13:47:35.471Z,17.77
2018-09-16T13:50:02.818Z,15.93
2018-09-16T13:52:30.160Z,16.25
2018-09-16T13:54:57.455Z,15.50
2018-09-16T13:57:24.780Z,15.83
2018-09-16T13:59:52.083Z,14.90
2018-09-16T14:02:19.451Z,16.48
2018-09-16T14:04:46.813Z,16.15
2018-09-16T14:07:14.141Z,16.07
2018-09-16T14:09:41.580Z,16.05
2018-09-16T14:12:08.722Z,16.70
2018-09-16T14:14:36.071Z,17.17
2018-09-16T14:17:03.368Z,15.70
2018-09-16T14:19:30.701Z,15.65
2018-09-16T14:21:58.130Z,16.48
2018-09-16T14:24:25.422Z,14.70
2018-09-16T14:26:52.775Z,17.17
2018-09-16T14:29:20.113Z,16.65
2018-09-16T14:31:47.394Z,16.27
2018-09-16T14:34:14.775Z,15.53
2018-09-16T14:36:42.248Z,15.53
2018-09-16T14:39:09.956Z,14.28
2018-09-16T14:41:37.259Z,15.30
2018-09-16T14:44:04.626Z,16.50
2018-09-16T14:46:31.917Z,16.97
2018-09-16T14:48:59.320Z,15.98
2018-09-16T14:51:26.671Z,15.88
2018-09-16T14:53:53.957Z,16.35
2018-09-16T14:56:21.264Z,16.00
2018-09-16T14:58:48.582Z,15.68
2018-09-16T15:01:15.941Z,15.60
2018-09-16T15:03:43.285Z,16.00
2018-09-16T15:06:10.599Z,17.02
2018-09-16T15:08:37.942Z,15.00
2018-09-16T15:11:05.294Z,16.12
2018-09-16T15:13:32.641Z,14.98
2018-09-16T15:16:00.014Z,16.55
2018-09-16T15:18:27.298Z,17.00
2018-09-16T15:20:54.673Z,17.50
2018-09-16T15:23:22.031Z,16.73
2018-09-16T15:25:49.318Z,15.65
2018-09-16T15:28:16.687Z,16.95
2018-09-16T15:30:43.960Z,17.00
2018-09-16T15:33:11.261Z,17.48
2018-09-16T15:35:38.566Z,17.05
2018-09-16T15:38:05.963Z,16.23
2018-09-16T15:40:33.313Z,16.25
2018-09-16T15:43:00.645Z,17.73
2018-09-16T15:45:28.005Z,16.37
2018-09-16T15:47:55.316Z,16.37
2018-09-16T15:50:22.676Z,15.70
2018-09-16T15:52:49.949Z,14.85
2018-09-16T15:55:17.396Z,17.25
2018-09-16T15:57:44.674Z,17.98
2018-09-16T16:00:11.998Z,18.75
2018-09-16T16:02:39.344Z,16.87
2018-09-16T16:05:06.712Z,16.35
2018-09-16T16:07:34.167Z,16.40
2018-09-16T16:10:01.509Z,15.95
2018-09-16T16:12:28.844Z,15.55
2018-09-16T16:14:56.321Z,16.45
2018-09-16T16:17:23.634Z,15.68
2018-09-16T16:19:50.975Z,16.42
2018-09-16T16:22:18.340Z,15.95
2018-09-16T16:24:45.696Z,16.80
2018-09-16T16:27:13.025Z,16.25
2018-09-16T16:29:40.390Z,15.95
2018-09-16T16:32:07.795Z,15.90
2018-09-16T16:34:35.137Z,16.00
2018-09-16T16:37:02.515Z,16.62
2018-09-16T16:39:29.919Z,16.30
2018-09-16T16:41:57.305Z,16.52
2018-09-16T16:44:24.654Z,15.90
2018-09-16T16:46:51.981Z,15.80
2018-09-16T16:49:19.305Z,17.90
2018-09-16T16:51:46.646Z,17.52
2018-09-16T16:54:13.979Z,16.48
2018-09-16T16:56:41.416Z,16.42
2018-09-16T16:59:08.786Z,17.00
2018-09-16T17:01:36.147Z,16.48
2018-09-16T17:04:03.501Z,17.02
2018-09-16T17:06:31.019Z,15.85
2018-09-16T17:08:58.404Z,16.73
2018-09-16T17:11:25.762Z,15.75
2018-09-16T17:13:53.104Z,16.80
2018-09-16T17:16:20.458Z,16.20
2018-09-16T17:18:47.818Z,15.72
2018-09-16T17:21:15.141Z,16.05
2018-09-16T17:23:42.508Z,15.98
2018-09-16T17:26:09.847Z,17.65
2018-09-16T17:28:37.152Z,15.90
2018-09-16T17:31:04.893Z,16.23
2018-09-16T17:33:32.255Z,16.05
2018-09-16T17:35:59.571Z,15.00
2018-09-16T17:38:27.030Z,16.62
2018-09-16T17:40:54.368Z,15.65
2018-09-16T17:43:21.699Z,15.63
2018-09-16T17:45:49.190Z,15.72
2018-09-16T17:48:16.610Z,15.60
2018-09-16T17:50:43.951Z,16.05
2018-09-16T17:53:11.416Z,16.95
2018-09-16T17:55:38.759Z,16.40
2018-09-16T17:58:06.053Z,15.50
2018-09-16T18:00:33.475Z,16.52
2018-09-16T18:03:00.837Z,16.55
2018-09-16T18:05:28.438Z,16.20
2018-09-16T18:07:55.794Z,15.90
2018-09-16T18:10:23.169Z,16.02
2018-09-16T18:12:50.595Z,16.12
2018-09-16T18:15:18.064Z,16.30
2018-09-16T18:17:45.403Z,15.50
2018-09-16T18:20:12.827Z,15.83
2018-09-16T18:22:40.225Z,16.62
2018-09-16T18:25:07.555Z,16.37
2018-09-16T18:27:34.910Z,17.32
2018-09-16T18:30:02.337Z,16.55
2018-09-16T18:32:29.769Z,15.95
2018-09-16T18:34:57.099Z,16.82
2018-09-16T18:37:24.661Z,15.78
2018-09-16T18:39:52.001Z,15.88
2018-09-16T18:42:19.675Z,16.75
2018-09-16T18:44:47.154Z,16.50
2018-09-16T18:47:14.566Z,16.85
2018-09-16T18:49:41.896Z,15.55
2018-09-16T18:52:09.284Z,16.20
2018-09-16T18:54:36.862Z,15.63
2018-09-16T18:57:04.297Z,15.55
2018-09-16T18:59:31.769Z,15.72
2018-09-16T19:01:59.167Z,15.60
2018-09-16T19:04:26.561Z,15.63
2018-09-16T19:06:54.175Z,15.90
2018-09-16T19:09:21.620Z,15.90
2018-09-16T19:11:49.107Z,15.65
2018-09-16T19:14:16.620Z,16.30
2018-09-16T19:16:44.052Z,16.70
2018-09-16T19:19:11.425Z,15.95
2018-09-16T19:21:38.839Z,15.40
2018-09-16T19:24:06.364Z,16.42
2018-09-16T19:26:33.838Z,16.02
2018-09-16T19:29:01.359Z,16.20
2018-09-16T19:31:28.927Z,16.10
2018-09-16T19:33:56.458Z,15.88
2018-09-16T19:36:24.005Z,16.50
2018-09-16T19:38:51.545Z,15.45
2018-09-16T19:41:18.992Z,15.55
2018-09-16T19:43:46.667Z,15.75
2018-09-16T19:46:14.070Z,16.57
2018-09-16T19:48:41.430Z,16.02
2018-09-16T19:51:08.852Z,15.58
2018-09-16T19:53:36.292Z,15.50
2018-09-16T19:56:03.635Z,16.10
2018-09-16T19:58:31.005Z,15.98
2018-09-16T20:00:58.375Z,16.05
2018-09-16T20:03:26.537Z,16.20
2018-09-16T20:05:53.915Z,15.35
2018-09-16T20:08:21.346Z,15.43
2018-09-16T20:10:48.719Z,16.17
2018-09-16T20:13:16.125Z,15.38
2018-09-16T20:15:43.533Z,16.12
2018-09-16T20:18:10.873Z,16.07
2018-09-16T20:20:38.222Z,15.70
2018-09-16T20:23:05.691Z,16.37
2018-09-16T20:25:33.027Z,16.02
2018-09-16T20:28:00.361Z,15.48
2018-09-16T20:30:27.865Z,15.63
2018-09-16T20:32:55.652Z,15.45
2018-09-16T20:35:23.010Z,16.82
2018-09-16T20:37:50.451Z,15.40
2018-09-16T20:40:17.891Z,16.37
2018-09-16T20:42:45.207Z,16.35
2018-09-16T20:45:12.541Z,15.95
2018-09-16T20:47:39.883Z,15.65
2018-09-16T20:50:07.222Z,16.40
2018-09-16T20:52:34.527Z,16.25
2018-09-16T20:55:01.809Z,16.10
2018-09-16T20:57:29.112Z,15.50
2018-09-16T20:59:56.494Z,16.12
2018-09-16T21:02:23.848Z,15.68
2018-09-16T21:04:51.947Z,17.23
2018-09-16T21:07:19.549Z,15.32
2018-09-16T21:09:46.910Z,15.40
2018-09-16T21:12:14.192Z,16.02
2018-09-16T21:14:41.491Z,17.17
2018-09-16T21:17:08.806Z,16.50
2018-09-16T21:19:36.104Z,16.15
2018-09-16T21:22:03.452Z,16.00
2018-09-16T21:24:30.719Z,15.80
2018-09-16T21:26:58.037Z,15.65
2018-09-16T21:29:25.328Z,15.55
2018-09-16T21:31:52.673Z,15.83
2018-09-16T21:34:19.970Z,16.20
2018-09-16T21:36:47.290Z,15.80
2018-09-16T21:39:14.658Z,16.73
2018-09-16T21:41:42.336Z,15.90
2018-09-16T21:44:09.603Z,16.62
2018-09-16T21:46:37.585Z,16.82
2018-09-16T21:49:04.859Z,16.25
2018-09-16T21:51:32.166Z,16.55
2018-09-16T21:53:59.613Z,15.90
2018-09-16T21:56:27.061Z,16.15
2018-09-16T21:58:54.404Z,15.48
2018-09-16T22:01:21.699Z,15.98
2018-09-16T22:03:49.027Z,15.90
2018-09-16T22:06:16.401Z,16.32
2018-09-16T22:08:43.706Z,16.93
2018-09-16T22:11:11.018Z,17.12
2018-09-16T22:13:39.377Z,16.90
2018-09-16T22:16:06.932Z,16.50
2018-09-16T22:18:34.236Z,16.10
2018-09-16T22:21:01.521Z,16.62
2018-09-16T22:23:28.854Z,17.27
2018-09-16T22:25:56.212Z,16.20
2018-09-16T22:28:23.529Z,16.42
2018-09-16T22:30:50.849Z,15.63
2018-09-16T22:33:18.132Z,16.82
2018-09-16T22:35:45.405Z,17.90
2018-09-16T22:38:12.743Z,15.88
2018-09-16T22:40:40.032Z,16.32
2018-09-16T22:43:07.316Z,15.53
2018-09-16T22:45:34.617Z,15.60
2018-09-16T22:48:01.870Z,15.93
2018-09-16T22:50:29.168Z,16.73
2018-09-16T22:52:56.493Z,17.45
2018-09-16T22:55:24.032Z,17.02
2018-09-16T22:57:51.353Z,15.70
2018-09-16T23:00:18.635Z,16.65
2018-09-16T23:02:45.945Z,17.00
2018-09-16T23:05:13.262Z,15.80
2018-09-16T23:07:40.934Z,17.05
2018-09-16T23:10:08.239Z,16.02
2018-09-16T23:12:35.533Z,16.50
2018-09-16T23:15:02.881Z,16.40
2018-09-16T23:17:30.134Z,17.23
2018-09-16T23:19:57.575Z,16.07
2018-09-16T23:22:24.817Z,16.87
2018-09-16T23:24:52.411Z,15.68
2018-09-16T23:27:19.718Z,16.25
2018-09-16T23:29:46.958Z,18.30
2018-09-16T23:32:14.241Z,16.37
2018-09-16T23:34:41.517Z,15.80
2018-09-16T23:37:08.809Z,16.23
2018-09-16T23:39:36.112Z,15.75
2018-09-16T23:42:03.396Z,16.40
2018-09-16T23:44:30.682Z,16.23
2018-09-16T23:46:57.954Z,15.70
2018-09-16T23:49:25.981Z,16.67
2018-09-16T23:51:53.257Z,15.68
2018-09-16T23:54:20.543Z,16.05
2018-09-16T23:56:47.797Z,16.32
2018-09-16T23:59:15.068Z,15.65
